Time;durP1;ratioP1;P1;durP2;ratioP2;P2;SDS_P1;SDS_P2;PMS_P1;PMS_P2;Temp;Humidity;BMP_temperature;BMP_pressure;BME280_temperature;BME280_humidity;BME280_pressure;Samples;Min_cycle;Max_cycle;Signal;HPM_P1;HPM_P2
2022/06/28 00:01:32;;;;;;;2.65;0.10;;;25.70;41.10;;;;;;5078477;28;20044;-45
2022/06/28 00:03:59;;;;;;;1.33;0.10;;;25.60;41.10;;;;;;5080377;28;20058;-45
2022/06/28 00:06:26;;;;;;;0.80;0.10;;;25.60;41.20;;;;;;5084713;28;20131;-43
2022/06/28 00:08:54;;;;;;;2.47;0.10;;;25.60;41.40;;;;;;5082820;28;20039;-43
2022/06/28 00:11:21;;;;;;;4.05;0.10;;;25.60;41.50;;;;;;5081852;28;20123;-47
2022/06/28 00:13:48;;;;;;;1.67;0.20;;;25.50;41.60;;;;;;5075053;28;20036;-43
2022/06/28 00:16:16;;;;;;;4.43;0.20;;;25.50;41.70;;;;;;5081087;28;20048;-43
2022/06/28 00:18:44;;;;;;;1.92;0.85;;;25.50;41.80;;;;;;5082887;28;20119;-46
2022/06/28 00:21:12;;;;;;;12.02;0.75;;;25.50;42.00;;;;;;5084351;28;20048;-45
2022/06/28 00:23:42;;;;;;;3.38;0.00;;;25.40;42.00;;;;;;5064222;28;20492;-45
2022/06/28 00:26:10;;;;;;;2.80;0.10;;;25.40;42.10;;;;;;5079949;28;20512;-44
2022/06/28 00:28:38;;;;;;;1.60;0.00;;;25.40;42.10;;;;;;5082247;28;20054;-43
2022/06/28 00:31:05;;;;;;;3.20;0.10;;;25.30;42.10;;;;;;5066402;28;20456;-45
2022/06/28 00:33:34;;;;;;;3.40;0.20;;;25.30;42.20;;;;;;5085304;28;20145;-43
2022/06/28 00:36:01;;;;;;;0.38;0.35;;;25.30;42.30;;;;;;5084452;28;20044;-47
2022/06/28 00:38:28;;;;;;;1.95;0.10;;;25.30;42.40;;;;;;5078211;28;20071;-46
2022/06/28 00:40:57;;;;;;;2.13;0.10;;;25.30;42.50;;;;;;5077851;28;20063;-45
2022/06/28 00:43:24;;;;;;;5.25;0.28;;;25.20;42.50;;;;;;5052100;28;20040;-44
2022/06/28 00:45:52;;;;;;;0.52;0.03;;;25.20;42.60;;;;;;5053221;28;20045;-45
2022/06/28 00:48:19;;;;;;;0.80;0.10;;;25.20;42.60;;;;;;5082397;28;20040;-44
2022/06/28 00:50:48;;;;;;;0.80;0.10;;;25.20;42.60;;;;;;5080321;28;20072;-43
2022/06/28 00:53:17;;;;;;;3.13;0.10;;;25.10;42.60;;;;;;5076035;28;20075;-44
2022/06/28 00:55:45;;;;;;;1.42;0.10;;;25.10;42.70;;;;;;5077699;28;20032;-48
2022/06/28 00:58:13;;;;;;;1.58;0.10;;;25.10;42.80;;;;;;5077398;28;20489;-48
2022/06/28 01:00:43;;;;;;;2.83;0.10;;;25.10;42.80;;;;;;5081626;28;20083;-45
2022/06/28 01:03:15;;;;;;;1.25;0.30;;;25.00;42.70;;;;;;5080029;28;20044;-44
2022/06/28 01:05:45;;;;;;;2.58;0.20;;;25.00;42.80;;;;;;5079588;28;20044;-44
2022/06/28 01:08:14;;;;;;;2.22;0.22;;;25.00;42.80;;;;;;5076433;28;20131;-43
2022/06/28 01:10:42;;;;;;;1.75;0.10;;;25.00;42.80;;;;;;5080600;28;20692;-44
2022/06/28 01:13:11;;;;;;;2.95;0.10;;;24.90;42.90;;;;;;5066771;28;20501;-45
2022/06/28 01:15:41;;;;;;;3.67;0.60;;;24.90;43.00;;;;;;5077821;28;20036;-43
2022/06/28 01:18:10;;;;;;;0.88;0.38;;;24.90;43.00;;;;;;5084089;28;20040;-43
2022/06/28 01:20:43;;;;;;;1.02;0.10;;;24.90;43.10;;;;;;5076795;28;20497;-43
2022/06/28 01:23:19;;;;;;;2.05;0.10;;;24.90;43.20;;;;;;5077895;28;20040;-45
2022/06/28 01:25:49;;;;;;;1.60;0.10;;;24.90;43.20;;;;;;5073980;28;20044;-45
2022/06/28 01:28:22;;;;;;;2.70;0.22;;;24.90;43.20;;;;;;5069852;28;20116;-47
2022/06/28 01:30:53;;;;;;;3.25;0.20;;;24.80;43.20;;;;;;5087394;28;20097;-44
2022/06/28 01:33:24;;;;;;;2.50;0.20;;;24.80;43.30;;;;;;5084639;28;20067;-44
2022/06/28 01:35:54;;;;;;;3.05;0.10;;;24.80;43.30;;;;;;5073971;28;20045;-46
2022/06/28 01:38:24;;;;;;;3.50;1.23;;;24.80;44.00;;;;;;5076052;28;20123;-45
2022/06/28 01:40:51;;;;;;;1.58;0.10;;;24.80;43.40;;;;;;5072000;28;20047;-49
2022/06/28 01:43:20;;;;;;;0.20;0.10;;;24.80;44.10;;;;;;5064001;28;20327;-45
2022/06/28 01:45:51;;;;;;;1.38;0.10;;;24.70;43.50;;;;;;5052475;28;20048;-47
2022/06/28 01:48:19;;;;;;;2.38;0.10;;;24.70;43.50;;;;;;5081442;28;20101;-46
2022/06/28 01:51:01;;;;;;;0.73;0.20;;;24.70;43.60;;;;;;5066252;28;20047;-48
2022/06/28 01:53:30;;;;;;;0.20;0.10;;;24.70;43.60;;;;;;5074404;28;20120;-47
2022/06/28 01:56:19;;;;;;;0.80;0.10;;;24.70;43.60;;;;;;5077029;28;20064;-43
2022/06/28 01:59:05;;;;;;;0.90;0.10;;;24.70;43.70;;;;;;5074823;28;20492;-47
2022/06/28 02:01:46;;;;;;;1.60;0.10;;;24.60;43.70;;;;;;5079983;28;20048;-44
2022/06/28 02:04:21;;;;;;;1.85;0.77;;;24.60;43.80;;;;;;5063492;28;20512;-43
2022/06/28 02:06:53;;;;;;;1.02;0.20;;;24.60;43.90;;;;;;5074545;28;20124;-47
2022/06/28 02:09:23;;;;;;;0.47;0.10;;;24.60;44.00;;;;;;5072704;28;20044;-44
2022/06/28 02:11:51;;;;;;;3.22;0.25;;;24.60;44.00;;;;;;5053577;28;20044;-44
2022/06/28 02:14:22;;;;;;;2.70;0.60;;;24.60;44.10;;;;;;5077592;28;20580;-44
2022/06/28 02:16:50;;;;;;;0.88;0.32;;;24.50;44.00;;;;;;5072339;28;20480;-44
2022/06/28 02:19:18;;;;;;;0.77;0.10;;;24.50;44.00;;;;;;5066634;28;20037;-45
2022/06/28 02:21:46;;;;;;;1.55;0.10;;;24.50;44.10;;;;;;5073312;28;20420;-51
2022/06/28 02:24:13;;;;;;;0.80;0.25;;;24.50;44.10;;;;;;5083760;28;20055;-48
2022/06/28 02:26:42;;;;;;;2.28;0.30;;;24.50;44.20;;;;;;5074234;28;20032;-50
2022/06/28 02:29:09;;;;;;;3.83;0.20;;;24.50;44.30;;;;;;5077604;28;20048;-44
2022/06/28 02:31:36;;;;;;;1.48;0.10;;;24.50;44.20;;;;;;5071461;28;20046;-46
2022/06/28 02:34:05;;;;;;;0.82;0.10;;;24.50;44.20;;;;;;5068906;28;20036;-45
2022/06/28 02:42:08;;;;;;;1.08;0.25;;;24.40;44.20;;;;;;5029462;28;20045;-47
2022/06/28 02:44:35;;;;;;;1.65;0.00;;;24.40;44.20;;;;;;5029291;28;20099;-50
2022/06/28 02:47:02;;;;;;;1.73;0.20;;;24.40;44.20;;;;;;5031612;28;20033;-51
2022/06/28 02:49:29;;;;;;;1.08;0.20;;;24.40;44.20;;;;;;5027712;28;20038;-52
2022/06/28 02:51:56;;;;;;;1.00;0.10;;;24.40;44.10;;;;;;5015526;28;20042;-46
2022/06/28 02:54:23;;;;;;;0.73;0.20;;;24.40;44.10;;;;;;5032387;28;20057;-47
2022/06/28 02:56:50;;;;;;;0.95;0.30;;;24.40;44.00;;;;;;5007897;28;20438;-43
2022/06/28 02:59:19;;;;;;;1.10;0.10;;;24.40;44.00;;;;;;5030127;28;20494;-45
2022/06/28 03:01:46;;;;;;;0.40;0.10;;;24.30;43.90;;;;;;5008276;28;20064;-43
2022/06/28 03:04:13;;;;;;;1.83;0.10;;;24.30;43.90;;;;;;5030020;28;20227;-47
2022/06/28 03:06:41;;;;;;;0.95;0.10;;;24.30;43.90;;;;;;5011903;28;20042;-44
2022/06/28 03:09:08;;;;;;;1.05;0.10;;;24.30;44.00;;;;;;5031332;28;20061;-43
2022/06/28 03:11:36;;;;;;;0.10;0.08;;;24.30;44.00;;;;;;5023907;28;20789;-42
2022/06/28 03:14:03;;;;;;;0.98;0.15;;;24.30;44.00;;;;;;5031873;28;20515;-42
2022/06/28 03:16:31;;;;;;;1.90;0.20;;;24.20;44.00;;;;;;5066936;28;20069;-47
2022/06/28 03:18:58;;;;;;;0.32;0.32;;;24.30;44.00;;;;;;5048040;28;20073;-50
2022/06/28 03:21:25;;;;;;;1.33;0.10;;;24.30;44.00;;;;;;5059636;28;20045;-43
2022/06/28 03:23:52;;;;;;;0.30;0.22;;;24.20;43.90;;;;;;5064550;28;20148;-43
2022/06/28 03:26:21;;;;;;;2.65;0.05;;;24.20;43.90;;;;;;5072908;28;20041;-44
2022/06/28 03:28:48;;;;;;;0.55;0.10;;;24.20;43.80;;;;;;5071897;28;20061;-43
2022/06/28 03:31:15;;;;;;;1.02;0.30;;;24.20;43.80;;;;;;5052596;28;20051;-45
2022/06/28 03:33:43;;;;;;;0.73;0.10;;;24.20;43.80;;;;;;5063743;28;20056;-45
2022/06/28 03:36:10;;;;;;;1.65;0.10;;;24.20;43.90;;;;;;5073994;28;20037;-44
2022/06/28 03:38:41;;;;;;;1.00;0.10;;;24.20;43.90;;;;;;5059456;28;20043;-42
2022/06/28 03:41:32;;;;;;;0.98;0.35;;;24.10;44.10;;;;;;5076183;28;20041;-44
2022/06/28 03:44:08;;;;;;;1.48;0.10;;;24.20;44.30;;;;;;5049992;28;20075;-43
2022/06/28 03:46:37;;;;;;;1.00;0.00;;;24.20;44.30;;;;;;5078782;28;20048;-45
2022/06/28 03:49:44;;;;;;;0.10;0.03;;;24.30;44.30;;;;;;5022431;28;20045;-47
2022/06/28 03:52:28;;;;;;;0.20;0.10;;;24.40;44.10;;;;;;5021143;28;20214;-42
2022/06/28 03:55:10;;;;;;;1.38;0.10;;;24.40;44.10;;;;;;5006824;28;20085;-44
2022/06/28 03:57:42;;;;;;;2.27;0.10;;;24.40;44.10;;;;;;5013144;28;20049;-47
2022/06/28 04:00:13;;;;;;;1.55;0.70;;;24.40;44.10;;;;;;5013065;28;20835;-44
2022/06/28 04:02:43;;;;;;;1.27;0.10;;;24.50;44.10;;;;;;5002028;28;20664;-44
2022/06/28 04:05:19;;;;;;;2.08;0.20;;;24.50;44.00;;;;;;5011268;28;20205;-43
2022/06/28 04:07:46;;;;;;;1.27;0.25;;;24.60;44.00;;;;;;5010946;28;20081;-46
2022/06/28 04:10:14;;;;;;;1.05;0.10;;;24.60;44.00;;;;;;5019995;28;20030;-48
2022/06/28 04:12:45;;;;;;;1.42;0.80;;;24.60;43.90;;;;;;5006654;28;20049;-43
2022/06/28 04:15:19;;;;;;;1.15;0.60;;;24.70;44.50;;;;;;5016486;28;20148;-42
2022/06/28 04:17:54;;;;;;;1.20;0.10;;;24.60;43.80;;;;;;5020042;28;20057;-45
2022/06/28 04:20:52;;;;;;;1.45;0.20;;;24.70;43.80;;;;;;5039567;28;20049;-44
2022/06/28 04:23:19;;;;;;;0.73;0.10;;;24.70;43.80;;;;;;5056067;28;20036;-45
2022/06/28 04:25:47;;;;;;;1.05;0.10;;;24.80;43.80;;;;;;5057268;28;20077;-43
2022/06/28 04:28:21;;;;;;;0.90;0.20;;;24.80;43.80;;;;;;5059169;28;20119;-47
2022/06/28 04:30:59;;;;;;;0.32;0.10;;;24.90;43.90;;;;;;5067322;28;20037;-42
2022/06/28 04:33:27;;;;;;;0.20;0.10;;;24.90;43.70;;;;;;5075320;28;20041;-45
2022/06/28 04:35:56;;;;;;;1.67;0.10;;;24.90;43.60;;;;;;5066928;28;20579;-45
2022/06/28 04:38:25;;;;;;;0.35;0.10;;;24.90;43.50;;;;;;5054436;28;20413;-44
2022/06/28 04:41:15;;;;;;;1.35;0.10;;;24.90;43.20;;;;;;5051810;28;20113;-46
2022/06/28 04:43:51;;;;;;;0.10;0.10;;;24.90;43.00;;;;;;5061416;28;20048;-49
2022/06/28 04:46:22;;;;;;;2.05;0.10;;;24.90;42.80;;;;;;5055297;28;20334;-44
2022/06/28 04:48:51;;;;;;;2.78;0.10;;;24.80;42.80;;;;;;5073219;28;20499;-44
2022/06/28 04:51:23;;;;;;;0.20;0.10;;;24.80;42.70;;;;;;5053191;28;20439;-44
2022/06/28 04:53:51;;;;;;;1.10;0.63;;;24.80;42.70;;;;;;5069394;28;20048;-46
2022/06/28 04:56:22;;;;;;;1.95;0.20;;;24.70;42.60;;;;;;5071749;28;20032;-49
2022/06/28 04:58:50;;;;;;;3.80;0.20;;;24.70;42.60;;;;;;5050419;28;20064;-46
2022/06/28 05:01:17;;;;;;;0.52;0.10;;;24.60;42.50;;;;;;5062546;28;20049;-47
2022/06/28 05:03:47;;;;;;;0.38;0.38;;;24.60;42.50;;;;;;5063664;28;20048;-42
2022/06/28 05:06:34;;;;;;;;;;;24.60;42.50;;;;;;5077651;28;20032;-45
2022/06/28 05:09:01;;;;;;;0.32;0.08;;;24.50;42.50;;;;;;5076310;28;19931;-46
2022/06/28 05:11:30;;;;;;;0.45;0.10;;;24.50;42.70;;;;;;5075986;28;20042;-46
2022/06/28 05:14:08;;;;;;;1.55;0.10;;;24.50;42.70;;;;;;5075447;28;20196;-44
2022/06/28 05:16:36;;;;;;;0.52;0.35;;;24.50;42.70;;;;;;5074799;28;20036;-44
2022/06/28 05:19:04;;;;;;;1.38;0.10;;;24.50;42.70;;;;;;5065592;28;20114;-44
2022/06/28 05:21:39;;;;;;;0.65;0.10;;;24.50;42.60;;;;;;5058751;28;20075;-44
2022/06/28 05:24:07;;;;;;;0.13;0.10;;;24.40;42.60;;;;;;5073942;28;20386;-48
2022/06/28 05:26:41;;;;;;;0.00;0.00;;;24.40;42.50;;;;;;5074201;28;20044;-43
2022/06/28 05:29:17;;;;;;;;;;;24.40;42.40;;;;;;5077764;28;20048;-46
2022/06/28 05:31:45;;;;;;;2.15;0.10;;;24.40;42.40;;;;;;5070865;28;20111;-44
2022/06/28 05:34:12;;;;;;;0.93;0.10;;;24.40;42.60;;;;;;5080352;28;20036;-47
2022/06/28 05:36:41;;;;;;;3.25;0.25;;;24.40;42.40;;;;;;5073737;28;20047;-44
2022/06/28 05:39:11;;;;;;;1.35;0.00;;;24.40;42.40;;;;;;5083201;28;20090;-46
2022/06/28 05:41:38;;;;;;;0.50;0.20;;;24.40;42.30;;;;;;5081564;28;20051;-47
2022/06/28 05:44:05;;;;;;;1.98;0.17;;;24.40;42.20;;;;;;5079959;28;20067;-44
2022/06/28 05:46:33;;;;;;;1.40;0.20;;;24.40;42.10;;;;;;5069106;28;20040;-44
2022/06/28 05:49:01;;;;;;;1.25;0.10;;;24.40;42.10;;;;;;5079675;28;20714;-45
2022/06/28 05:51:29;;;;;;;0.77;0.43;;;24.40;41.80;;;;;;5072839;28;20120;-43
2022/06/28 05:53:58;;;;;;;0.60;0.10;;;24.40;41.40;;;;;;5056521;28;20045;-44
2022/06/28 05:56:25;;;;;;;0.38;0.10;;;24.40;41.10;;;;;;5080493;28;20448;-46
2022/06/28 05:58:53;;;;;;;1.05;0.10;;;24.40;40.90;;;;;;5073567;28;20048;-43
2022/06/28 06:01:21;;;;;;;2.15;0.10;;;24.40;40.80;;;;;;5070622;28;20107;-48
2022/06/28 06:03:48;;;;;;;4.63;0.20;;;24.40;40.90;;;;;;5075814;28;20044;-42
2022/06/28 06:06:15;;;;;;;6.47;0.10;;;24.30;40.80;;;;;;5077782;28;20094;-43
2022/06/28 06:08:44;;;;;;;2.38;0.00;;;24.30;40.70;;;;;;5074403;28;20564;-41
2022/06/28 06:11:12;;;;;;;1.35;0.40;;;24.30;40.70;;;;;;5078417;28;20039;-45
2022/06/28 06:13:41;;;;;;;0.75;0.10;;;24.30;40.70;;;;;;5083979;28;20040;-45
2022/06/28 06:16:08;;;;;;;0.63;0.05;;;24.20;40.60;;;;;;5062909;28;20471;-42
2022/06/28 06:18:35;;;;;;;2.28;0.10;;;24.20;40.70;;;;;;5062358;28;20049;-44
2022/06/28 06:21:02;;;;;;;1.58;0.10;;;24.20;40.70;;;;;;5079767;28;20043;-43
2022/06/28 06:23:29;;;;;;;0.85;0.25;;;24.20;40.70;;;;;;5081321;28;20032;-45
2022/06/28 06:26:21;;;;;;;0.50;0.10;;;24.20;40.80;;;;;;5085904;28;20033;-43
2022/06/28 06:28:48;;;;;;;1.27;0.47;;;24.20;40.70;;;;;;5042421;28;20052;-44
2022/06/28 06:31:16;;;;;;;1.25;0.43;;;24.10;40.70;;;;;;5059278;28;20123;-44
2022/06/28 06:33:52;;;;;;;0.63;0.10;;;24.20;40.70;;;;;;5072097;28;20045;-42
2022/06/28 06:36:40;;;;;;;0.65;0.45;;;24.10;40.70;;;;;;5088179;28;20520;-47
2022/06/28 06:39:09;;;;;;;4.40;0.68;;;24.10;40.80;;;;;;5086548;28;20044;-47
2022/06/28 06:41:38;;;;;;;2.35;0.25;;;24.10;40.90;;;;;;5063570;28;20394;-45
2022/06/28 06:44:05;;;;;;;0.90;0.65;;;24.10;40.90;;;;;;5062348;28;20075;-47
2022/06/28 06:46:34;;;;;;;0.98;0.47;;;24.20;40.90;;;;;;5083821;28;20047;-44
2022/06/28 06:49:01;;;;;;;0.70;0.10;;;24.20;40.90;;;;;;5081528;28;20051;-47
2022/06/28 06:51:30;;;;;;;2.78;0.30;;;24.10;40.80;;;;;;5087109;28;20036;-46
2022/06/28 06:53:58;;;;;;;2.58;0.40;;;24.20;40.60;;;;;;5062654;28;20735;-47
2022/06/28 06:56:25;;;;;;;2.40;0.30;;;24.20;41.00;;;;;;5081310;28;20043;-47
2022/06/28 06:58:54;;;;;;;0.50;0.00;;;24.20;41.00;;;;;;5076222;28;20698;-45
2022/06/28 07:01:22;;;;;;;1.75;0.10;;;24.20;41.00;;;;;;5071809;28;20068;-46
2022/06/28 07:03:49;;;;;;;3.72;0.10;;;24.20;41.00;;;;;;5074794;28;20063;-44
2022/06/28 07:06:16;;;;;;;2.50;0.15;;;24.20;40.90;;;;;;5091922;28;20046;-48
2022/06/28 07:08:43;;;;;;;0.50;0.10;;;24.20;40.90;;;;;;5076646;28;20059;-46
2022/06/28 07:11:13;;;;;;;1.10;0.10;;;24.20;40.80;;;;;;5078367;28;20039;-44
2022/06/28 07:13:40;;;;;;;3.50;0.10;;;24.20;40.80;;;;;;5077172;28;20090;-45
2022/06/28 07:16:09;;;;;;;3.90;0.08;;;24.20;40.80;;;;;;5083956;28;20778;-46
2022/06/28 07:18:36;;;;;;;1.80;0.30;;;24.30;40.90;;;;;;5079776;28;20464;-43
2022/06/28 07:21:04;;;;;;;0.63;0.00;;;24.30;40.90;;;;;;5082747;28;20044;-44
2022/06/28 07:23:31;;;;;;;1.55;0.10;;;24.30;40.90;;;;;;5073055;28;20040;-45
2022/06/28 07:25:59;;;;;;;0.28;0.10;;;24.30;40.90;;;;;;5076586;28;20488;-44
2022/06/28 07:28:26;;;;;;;0.65;0.15;;;24.30;40.90;;;;;;5071446;28;20480;-45
2022/06/28 07:30:53;;;;;;;0.93;0.40;;;24.40;40.80;;;;;;5080404;28;20040;-46
2022/06/28 07:33:23;;;;;;;1.42;0.10;;;24.40;40.90;;;;;;5078854;28;20064;-46
2022/06/28 07:35:50;;;;;;;0.43;0.20;;;24.40;40.90;;;;;;5085487;28;20050;-43
2022/06/28 07:38:17;;;;;;;3.58;0.68;;;24.40;40.80;;;;;;5081188;28;20067;-44
2022/06/28 07:41:08;;;;;;;0.25;0.10;;;24.40;41.00;;;;;;5005388;28;20463;-46
2022/06/28 07:43:55;;;;;;;0.30;0.30;;;24.40;41.00;;;;;;4931005;29;20047;-44
2022/06/28 07:46:25;;;;;;;1.00;0.10;;;24.40;40.90;;;;;;4930895;29;20055;-44
2022/06/28 07:48:54;;;;;;;1.92;0.10;;;24.40;41.60;;;;;;4931192;29;20078;-45
2022/06/28 07:54:10;;;;;;;1.20;0.10;;;24.50;41.00;;;;;;4939217;29;20055;-44
2022/06/28 07:56:43;;;;;;;3.33;0.10;;;24.50;40.90;;;;;;4914852;29;20085;-48
2022/06/28 07:59:11;;;;;;;3.13;0.10;;;24.40;40.90;;;;;;4946993;29;20047;-48
2022/06/28 08:01:40;;;;;;;2.40;0.10;;;24.50;41.20;;;;;;4946693;29;20598;-45
2022/06/28 08:04:17;;;;;;;1.35;0.15;;;24.50;40.90;;;;;;4930606;29;20092;-43
2022/06/28 08:06:45;;;;;;;2.35;0.10;;;24.60;40.90;;;;;;4930821;29;20118;-44
2022/06/28 08:09:13;;;;;;;8.60;0.73;;;24.60;40.90;;;;;;4947821;29;20529;-46
2022/06/28 08:11:42;;;;;;;0.10;0.10;;;24.60;40.70;;;;;;4946597;29;20051;-46
2022/06/28 08:14:11;;;;;;;0.70;0.70;;;24.60;40.50;;;;;;4928888;29;20157;-45
2022/06/28 08:16:41;;;;;;;2.35;0.10;;;24.60;40.70;;;;;;4930192;29;20513;-46
2022/06/28 08:19:11;;;;;;;2.20;0.20;;;24.60;40.90;;;;;;4979049;28;20155;-44
2022/06/28 08:21:44;;;;;;;0.15;0.10;;;24.60;40.90;;;;;;5036337;28;20057;-46
2022/06/28 08:24:11;;;;;;;1.42;0.20;;;24.70;40.70;;;;;;5091183;28;20036;-42
2022/06/28 08:26:42;;;;;;;0.45;0.10;;;24.70;40.60;;;;;;5078990;28;20051;-44
2022/06/28 08:29:10;;;;;;;1.98;0.10;;;24.80;40.60;;;;;;5077423;28;20040;-44
2022/06/28 08:31:37;;;;;;;1.33;0.15;;;24.80;40.60;;;;;;5082433;28;20131;-43
2022/06/28 08:34:05;;;;;;;0.17;0.15;;;24.90;40.70;;;;;;5076793;28;20063;-44
2022/06/28 08:36:33;;;;;;;4.10;0.20;;;24.90;40.50;;;;;;5072583;28;20072;-44
2022/06/28 08:39:03;;;;;;;3.38;0.32;;;24.90;40.60;;;;;;5081231;28;20102;-46
2022/06/28 08:41:32;;;;;;;2.22;0.35;;;25.00;40.40;;;;;;5077797;28;20115;-46
2022/06/28 08:44:00;;;;;;;4.15;0.10;;;24.90;40.00;;;;;;5077944;28;20036;-44
2022/06/28 08:46:27;;;;;;;3.08;0.68;;;25.00;39.80;;;;;;5074147;28;20064;-46
2022/06/28 08:49:02;;;;;;;0.20;0.03;;;25.00;39.70;;;;;;5074983;28;20047;-45
2022/06/28 08:51:33;;;;;;;0.77;0.10;;;25.00;39.50;;;;;;5073343;28;20044;-46
2022/06/28 08:54:04;;;;;;;8.60;0.68;;;25.10;39.70;;;;;;5072101;28;20048;-44
2022/06/28 08:56:31;;;;;;;0.55;0.10;;;25.10;39.40;;;;;;5078609;28;20032;-43
2022/06/28 08:59:00;;;;;;;0.95;0.30;;;25.10;39.00;;;;;;5081583;28;20040;-43
2022/06/28 09:01:27;;;;;;;1.13;0.10;;;25.10;38.70;;;;;;5073781;28;20042;-45
2022/06/28 09:03:55;;;;;;;1.80;0.10;;;25.10;38.20;;;;;;5072668;28;20072;-43
2022/06/28 09:06:23;;;;;;;1.10;0.10;;;25.10;38.20;;;;;;5072896;28;20422;-42
2022/06/28 09:08:51;;;;;;;1.33;0.20;;;25.10;38.50;;;;;;5073592;28;20047;-45
2022/06/28 09:11:19;;;;;;;1.58;0.10;;;25.10;38.50;;;;;;5076531;28;20159;-47
2022/06/28 09:13:46;;;;;;;2.67;0.10;;;25.20;38.50;;;;;;5081035;28;20044;-45
2022/06/28 09:16:14;;;;;;;0.68;0.08;;;25.20;38.30;;;;;;5076762;28;20400;-44
2022/06/28 09:18:46;;;;;;;2.42;0.10;;;25.30;38.20;;;;;;5084255;28;20040;-43
2022/06/28 09:21:16;;;;;;;0.22;0.10;;;25.30;38.40;;;;;;5082584;28;20040;-46
2022/06/28 09:23:46;;;;;;;0.50;0.20;;;25.30;37.70;;;;;;5093007;28;20717;-44
2022/06/28 09:26:19;;;;;;;4.40;0.25;;;25.30;37.50;;;;;;5080341;28;20064;-45
2022/06/28 09:28:48;;;;;;;0.10;0.10;;;25.30;36.90;;;;;;5084434;28;20084;-45
2022/06/28 09:31:22;;;;;;;0.55;0.08;;;25.30;37.00;;;;;;5081953;28;20047;-47
2022/06/28 09:34:02;;;;;;;0.57;0.03;;;25.30;36.50;;;;;;5088478;28;20505;-44
2022/06/28 09:36:31;;;;;;;0.22;0.00;;;25.30;35.90;;;;;;5086210;28;20123;-44
2022/06/28 09:39:01;;;;;;;0.43;0.43;;;25.30;35.40;;;;;;5083288;28;20504;-49
2022/06/28 09:41:30;;;;;;;2.78;0.10;;;25.30;35.10;;;;;;5083268;28;20147;-46
2022/06/28 09:44:00;;;;;;;0.10;0.10;;;25.30;35.50;;;;;;5081112;28;20031;-44
2022/06/28 09:46:30;;;;;;;0.30;0.00;;;25.30;35.50;;;;;;5085375;28;20044;-45
2022/06/28 09:49:00;;;;;;;0.25;0.10;;;25.30;35.70;;;;;;5075183;28;20115;-45
2022/06/28 09:51:30;;;;;;;3.00;0.10;;;25.40;35.90;;;;;;5077892;28;20105;-45
2022/06/28 09:54:00;;;;;;;0.55;0.55;;;25.40;35.70;;;;;;5081807;28;20131;-49
2022/06/28 09:56:31;;;;;;;2.08;0.10;;;25.50;35.70;;;;;;5080862;28;20370;-49
2022/06/28 09:58:59;;;;;;;1.88;0.00;;;25.50;35.30;;;;;;5084170;28;20474;-46
2022/06/28 10:01:27;;;;;;;1.00;0.00;;;25.60;35.40;;;;;;5082862;28;20048;-44
2022/06/28 10:03:54;;;;;;;2.25;0.10;;;25.60;35.00;;;;;;5082068;28;20467;-46
2022/06/28 10:06:23;;;;;;;0.40;0.00;;;25.60;35.00;;;;;;5084153;28;20044;-46
2022/06/28 10:08:50;;;;;;;2.47;0.20;;;25.60;34.90;;;;;;5081190;28;20416;-43
2022/06/28 10:11:18;;;;;;;0.50;0.10;;;25.70;34.70;;;;;;5077913;28;20036;-50
2022/06/28 10:16:48;;;;;;;0.52;0.00;;;25.70;34.80;;;;;;5076388;28;20040;-44
2022/06/28 10:19:18;;;;;;;0.52;0.10;;;25.70;34.50;;;;;;5084401;28;20044;-44
2022/06/28 10:21:47;;;;;;;2.45;0.10;;;25.70;34.40;;;;;;5079886;28;20075;-45
2022/06/28 10:24:15;;;;;;;2.65;0.03;;;25.70;34.50;;;;;;5083388;28;20055;-44
2022/06/28 10:26:46;;;;;;;1.13;0.08;;;25.70;34.30;;;;;;5081242;28;20134;-44
2022/06/28 10:29:16;;;;;;;1.85;0.10;;;25.70;34.20;;;;;;5084615;28;20040;-46
2022/06/28 10:31:44;;;;;;;1.35;0.00;;;25.80;34.20;;;;;;5082437;28;20044;-45
2022/06/28 10:34:13;;;;;;;0.73;0.00;;;25.80;34.00;;;;;;5075886;28;20579;-46
2022/06/28 10:36:46;;;;;;;1.48;0.10;;;25.80;33.90;;;;;;5080562;28;20068;-46
2022/06/28 10:39:19;;;;;;;1.45;0.25;;;25.80;33.80;;;;;;5086466;28;20040;-46
2022/06/28 10:41:47;;;;;;;0.55;0.10;;;25.90;33.70;;;;;;5083800;28;20039;-44
2022/06/28 10:44:18;;;;;;;0.60;0.30;;;25.90;33.90;;;;;;5080799;28;20115;-43
2022/06/28 10:46:51;;;;;;;2.53;0.20;;;25.90;33.90;;;;;;5076099;28;20073;-44
2022/06/28 10:49:20;;;;;;;0.52;0.10;;;26.00;34.00;;;;;;5078229;28;20040;-43
2022/06/28 10:52:12;;;;;;;0.40;0.03;;;26.00;33.90;;;;;;5090815;28;20073;-46
2022/06/28 10:54:40;;;;;;;0.20;0.00;;;26.10;34.30;;;;;;5079806;28;20528;-43
2022/06/28 10:57:24;;;;;;;0.70;0.10;;;26.10;34.20;;;;;;5091133;28;20040;-43
2022/06/28 10:59:54;;;;;;;7.38;0.52;;;26.20;33.80;;;;;;5073562;28;20114;-52
2022/06/28 11:02:22;;;;;;;3.50;0.38;;;26.20;36.70;;;;;;5077462;28;20040;-46
2022/06/28 11:05:05;;;;;;;7.47;1.27;;;26.30;38.40;;;;;;5073325;28;20044;-45
2022/06/28 11:07:35;;;;;;;7.00;0.70;;;26.40;39.40;;;;;;5072644;28;20028;-46
2022/06/28 11:10:10;;;;;;;5.47;0.30;;;26.50;39.90;;;;;;5071909;28;20132;-47
2022/06/28 11:12:39;;;;;;;5.45;1.20;;;26.60;40.30;;;;;;5085164;28;20047;-45
2022/06/28 11:15:10;;;;;;;4.85;0.90;;;26.70;40.50;;;;;;5079099;28;20123;-44
2022/06/28 11:17:39;;;;;;;3.72;0.77;;;26.70;40.60;;;;;;5076274;28;20250;-46
2022/06/28 11:20:09;;;;;;;4.15;1.17;;;26.80;40.70;;;;;;5076041;28;20044;-44
2022/06/28 11:22:40;;;;;;;2.95;0.40;;;26.90;40.70;;;;;;5074163;28;20059;-46
2022/06/28 11:25:09;;;;;;;2.65;0.20;;;26.90;40.70;;;;;;5070851;28;20429;-44
2022/06/28 11:27:43;;;;;;;0.50;0.20;;;27.00;40.70;;;;;;5076395;28;20055;-45
2022/06/28 11:30:14;;;;;;;4.55;0.60;;;27.10;40.60;;;;;;5082406;28;20157;-44
2022/06/28 11:32:43;;;;;;;2.80;0.45;;;27.20;40.60;;;;;;5072680;28;20515;-45
2022/06/28 11:35:13;;;;;;;7.22;0.60;;;27.20;40.50;;;;;;5076767;28;20044;-44
2022/06/28 11:37:51;;;;;;;0.88;0.28;;;27.30;41.00;;;;;;5080168;28;20059;-45
2022/06/28 11:40:20;;;;;;;4.68;0.17;;;27.40;40.40;;;;;;5074735;28;20043;-46
2022/06/28 11:42:50;;;;;;;0.85;0.22;;;27.40;40.20;;;;;;5085657;28;20050;-44
2022/06/28 11:45:19;;;;;;;1.38;0.13;;;27.40;40.10;;;;;;5074873;28;20044;-44
2022/06/28 11:47:47;;;;;;;1.50;0.60;;;27.50;40.00;;;;;;5073018;28;20413;-44
2022/06/28 11:50:17;;;;;;;1.52;0.10;;;27.50;39.90;;;;;;5076649;28;20121;-45
2022/06/28 11:52:49;;;;;;;1.10;0.40;;;27.60;39.80;;;;;;5071685;28;20131;-45
2022/06/28 11:55:18;;;;;;;1.05;0.30;;;27.60;39.70;;;;;;5072907;28;20051;-44
2022/06/28 11:57:46;;;;;;;1.65;0.13;;;27.70;39.60;;;;;;5070658;28;20467;-45
2022/06/28 12:00:15;;;;;;;0.40;0.10;;;27.70;39.50;;;;;;5075938;28;20044;-45
2022/06/28 12:02:49;;;;;;;1.27;0.20;;;27.80;39.50;;;;;;5075924;28;20036;-47
2022/06/28 12:05:29;;;;;;;1.83;0.30;;;27.90;39.40;;;;;;5072164;28;20045;-43
2022/06/28 12:07:57;;;;;;;2.80;0.20;;;27.90;39.30;;;;;;5075021;28;20501;-47
2022/06/28 12:10:25;;;;;;;1.02;0.30;;;27.90;39.20;;;;;;5070723;28;20507;-46
2022/06/28 12:12:53;;;;;;;1.70;0.85;;;28.00;39.20;;;;;;5083975;28;20127;-46
2022/06/28 12:15:29;;;;;;;3.13;0.22;;;28.00;39.10;;;;;;5073984;28;20032;-43
2022/06/28 12:18:03;;;;;;;2.30;0.95;;;28.10;39.60;;;;;;5075107;28;20064;-47
2022/06/28 12:20:33;;;;;;;0.75;0.10;;;28.10;39.00;;;;;;5077692;28;20071;-45
2022/06/28 12:23:02;;;;;;;1.00;0.17;;;28.10;39.00;;;;;;5071962;28;20416;-46
2022/06/28 12:25:30;;;;;;;0.57;0.10;;;28.20;39.00;;;;;;5070202;28;20085;-49
2022/06/28 12:27:58;;;;;;;0.77;0.15;;;28.20;39.00;;;;;;5072332;28;20067;-45
2022/06/28 12:30:25;;;;;;;0.40;0.40;;;28.30;39.10;;;;;;5080009;28;20053;-45
2022/06/28 12:32:53;;;;;;;1.05;0.38;;;28.30;39.10;;;;;;5073657;28;20737;-44
2022/06/28 12:35:21;;;;;;;2.05;0.10;;;28.40;39.20;;;;;;5076096;28;20044;-44
2022/06/28 12:37:49;;;;;;;0.20;0.10;;;28.40;39.20;;;;;;5069202;28;20055;-45
2022/06/28 12:40:18;;;;;;;0.20;0.10;;;28.50;39.20;;;;;;5082097;28;20036;-47
2022/06/28 12:42:45;;;;;;;0.20;0.10;;;28.50;39.10;;;;;;5083824;28;20046;-47
2022/06/28 12:45:12;;;;;;;0.40;0.10;;;28.50;39.00;;;;;;5076022;28;20052;-46
2022/06/28 12:47:41;;;;;;;1.13;0.20;;;28.60;39.10;;;;;;5071456;28;20043;-47
2022/06/28 12:50:15;;;;;;;0.30;0.30;;;28.60;39.00;;;;;;5075858;28;20054;-46
2022/06/28 12:52:45;;;;;;;0.20;0.10;;;28.70;39.00;;;;;;5071889;28;20649;-44
2022/06/28 12:55:14;;;;;;;1.35;0.10;;;28.70;38.90;;;;;;5071645;28;20113;-50
2022/06/28 12:57:42;;;;;;;0.52;0.38;;;28.80;38.90;;;;;;5070657;28;20043;-44
2022/06/28 13:00:11;;;;;;;0.80;0.10;;;28.80;38.80;;;;;;5077881;28;20135;-49
2022/06/28 13:02:39;;;;;;;0.95;0.10;;;28.90;38.80;;;;;;5076282;28;20047;-46
2022/06/28 13:05:07;;;;;;;1.55;0.10;;;28.90;38.70;;;;;;5070687;28;20084;-46
2022/06/28 13:07:36;;;;;;;0.30;0.17;;;29.00;39.30;;;;;;5048969;28;20048;-45
2022/06/28 13:10:05;;;;;;;0.15;0.10;;;29.00;38.70;;;;;;5070061;28;20093;-45
2022/06/28 13:12:32;;;;;;;0.10;0.10;;;29.00;38.60;;;;;;5082019;28;20044;-45
2022/06/28 13:14:59;;;;;;;0.22;0.15;;;29.10;38.60;;;;;;5071165;28;20072;-46